createdAt,value
2023-02-03T00:02:01.556Z,102004.91
2023-02-03T00:04:28.896Z,101999.75
2023-02-03T00:06:56.593Z,101998.94
2023-02-03T00:09:24.013Z,101997.19
2023-02-03T00:11:51.408Z,102000.69
2023-02-03T00:14:20.464Z,101999.00
2023-02-03T00:16:49.939Z,102006.88
2023-02-03T00:19:19.843Z,102015.69
2023-02-03T00:21:47.445Z,102004.38
2023-02-03T00:24:17.487Z,101999.13
2023-02-03T00:26:44.958Z,101992.16
2023-02-03T00:29:13.837Z,101995.72
2023-02-03T00:31:41.776Z,101991.38
2023-02-03T00:34:09.345Z,101994.84
2023-02-03T00:36:36.620Z,102007.06
2023-02-03T00:39:03.917Z,101997.50
2023-02-03T00:41:31.823Z,101985.22
2023-02-03T00:43:59.269Z,101969.50
2023-02-03T00:46:29.260Z,101965.09
2023-02-03T00:48:56.609Z,101950.19
2023-02-03T00:51:23.941Z,101962.53
2023-02-03T00:53:51.291Z,101969.50
2023-02-03T00:56:21.852Z,101951.97
2023-02-03T00:58:49.084Z,101948.50
2023-02-03T01:01:17.273Z,101940.63
2023-02-03T01:03:44.596Z,101931.88
2023-02-03T01:06:20.624Z,101936.25
2023-02-03T01:08:49.786Z,101944.13
2023-02-03T01:11:20.555Z,101943.25
2023-02-03T01:13:50.456Z,101937.94
2023-02-03T01:16:20.007Z,101952.03
2023-02-03T01:18:48.495Z,101940.63
2023-02-03T01:21:19.206Z,101911.78
2023-02-03T01:23:46.849Z,101901.22
2023-02-03T01:26:16.547Z,101897.66
2023-02-03T01:28:44.055Z,101919.56
2023-02-03T01:31:19.254Z,101934.38
2023-02-03T01:33:48.836Z,101935.25
2023-02-03T01:36:17.817Z,101938.69
2023-02-03T01:38:45.678Z,101933.44
2023-02-03T01:41:19.391Z,101921.28
2023-02-03T01:43:51.224Z,101924.81
2023-02-03T01:46:28.353Z,101924.75
2023-02-03T01:49:18.787Z,101922.06
2023-02-03T01:51:46.155Z,101921.25
2023-02-03T01:54:19.083Z,101909.03
2023-02-03T01:56:52.356Z,101902.03
2023-02-03T01:59:22.081Z,101903.84
2023-02-03T02:01:52.497Z,101893.34
2023-02-03T02:04:22.277Z,101920.44
2023-02-03T02:06:51.726Z,101916.09
2023-02-03T02:09:19.066Z,101916.94
2023-02-03T02:11:46.417Z,101923.91
2023-02-03T02:14:13.751Z,101922.19
2023-02-03T02:16:59.754Z,101911.69
2023-02-03T02:19:42.460Z,101895.84
2023-02-03T02:22:42.391Z,101901.94
2023-02-03T02:25:52.899Z,101891.41
2023-02-03T02:28:39.684Z,101899.28
2023-02-03T02:31:36.988Z,101902.78
2023-02-03T02:34:10.906Z,101904.47
2023-02-03T02:37:07.743Z,101897.41
2023-02-03T02:39:46.991Z,101886.00
2023-02-03T02:42:32.019Z,101886.91
2023-02-03T02:45:10.568Z,101892.97
2023-02-03T02:47:38.970Z,101869.31
2023-02-03T02:50:22.733Z,101881.59
2023-02-03T02:52:51.618Z,101871.13
2023-02-03T02:55:27.902Z,101858.84
2023-02-03T02:58:04.194Z,101860.56
2023-02-03T03:00:33.409Z,101864.06
2023-02-03T03:03:18.953Z,101852.66
2023-02-03T03:05:54.183Z,101837.78
2023-02-03T03:08:41.853Z,101858.84
2023-02-03T03:11:11.571Z,101845.66
2023-02-03T03:13:45.506Z,101855.34
2023-02-03T03:16:15.316Z,101834.28
2023-02-03T03:19:11.855Z,101826.44
2023-02-03T03:21:54.179Z,101815.00
2023-02-03T03:24:29.571Z,101809.72
2023-02-03T03:27:13.621Z,101828.13
2023-02-03T03:30:05.663Z,101821.94
2023-02-03T03:32:33.759Z,101821.94
2023-02-03T03:35:03.062Z,101836.81
2023-02-03T03:37:57.181Z,101846.53
2023-02-03T03:40:33.088Z,101839.53
2023-02-03T03:43:08.223Z,101867.56
2023-02-03T03:45:41.507Z,101853.59
2023-02-03T03:48:33.621Z,101853.69
2023-02-03T03:51:06.530Z,101846.78
2023-02-03T03:53:38.495Z,101848.53
2023-02-03T03:56:10.066Z,101845.09
2023-02-03T03:58:39.690Z,101843.44
2023-02-03T04:01:08.485Z,101850.50
2023-02-03T04:03:41.938Z,101854.06
2023-02-03T04:06:11.295Z,101855.00
2023-02-03T04:08:39.609Z,101847.16
2023-02-03T04:11:07.815Z,101829.69
2023-02-03T04:13:35.306Z,101831.41
2023-02-03T04:16:02.720Z,101845.44
2023-02-03T04:18:30.279Z,101825.31
2023-02-03T04:20:58.435Z,101839.31
2023-02-03T04:23:25.633Z,101837.59
2023-02-03T04:25:52.948Z,101827.94
2023-02-03T04:28:20.474Z,101843.75
2023-02-03T04:30:49.326Z,101823.66
2023-02-03T04:33:17.075Z,101835.94
2023-02-03T04:35:44.319Z,101823.69
2023-02-03T04:38:11.634Z,101825.50
2023-02-03T04:40:38.844Z,101837.88
2023-02-03T04:43:09.864Z,101811.75
2023-02-03T04:45:37.629Z,101839.78
2023-02-03T04:48:05.054Z,101837.22
2023-02-03T04:50:33.069Z,101825.00
2023-02-03T04:53:01.195Z,101827.72
2023-02-03T04:55:28.722Z,101827.78
2023-02-03T04:57:57.784Z,101830.41
2023-02-03T05:00:26.025Z,101824.28
2023-02-03T05:02:53.655Z,101828.69
2023-02-03T05:05:22.475Z,101833.13
2023-02-03T05:07:49.873Z,101832.25
2023-02-03T05:10:17.245Z,101812.16
2023-02-03T05:12:44.703Z,101820.00
2023-02-03T05:15:11.949Z,101816.50
2023-02-03T05:17:40.940Z,101814.75
2023-02-03T05:20:09.167Z,101823.50
2023-02-03T05:22:36.643Z,101824.34
2023-02-03T05:25:04.682Z,101817.41
2023-02-03T05:27:32.469Z,101806.03
2023-02-03T05:29:59.754Z,101818.31
2023-02-03T05:32:27.485Z,101809.53
2023-02-03T05:34:55.229Z,101806.03
2023-02-03T05:37:25.824Z,101806.03
2023-02-03T05:39:53.077Z,101807.75
2023-02-03T05:42:20.224Z,101804.28
2023-02-03T05:44:47.843Z,101783.25
2023-02-03T05:47:15.136Z,101788.53
2023-02-03T05:49:42.501Z,101786.81
2023-02-03T05:52:09.797Z,101799.06
2023-02-03T05:54:37.137Z,101808.69
2023-02-03T05:57:04.391Z,101789.44
2023-02-03T05:59:31.641Z,101806.06
2023-02-03T06:01:58.962Z,101809.56
2023-02-03T06:04:26.502Z,101798.25
2023-02-03T06:06:53.811Z,101801.69
2023-02-03T06:09:21.915Z,101793.84
2023-02-03T06:11:49.357Z,101797.31
2023-02-03T06:14:16.672Z,101799.03
2023-02-03T06:16:44.054Z,101788.53
2023-02-03T06:19:11.593Z,101793.78
2023-02-03T06:21:38.848Z,101799.84
2023-02-03T06:24:06.981Z,101777.97
2023-02-03T06:26:34.253Z,101787.53
2023-02-03T06:29:01.564Z,101783.16
2023-02-03T06:31:29.056Z,101791.84
2023-02-03T06:33:58.031Z,101777.81
2023-02-03T06:36:25.770Z,101812.78
2023-02-03T06:38:53.844Z,101813.66
2023-02-03T06:41:27.054Z,101821.59
2023-02-03T06:43:54.444Z,101832.91
2023-02-03T06:46:23.287Z,101811.97
2023-02-03T06:48:50.597Z,101827.66
2023-02-03T06:51:17.900Z,101817.16
2023-02-03T06:53:45.133Z,101834.66
2023-02-03T06:56:12.435Z,101825.00
2023-02-03T06:58:40.922Z,101823.28
2023-02-03T07:01:08.243Z,101839.03
2023-02-03T07:03:35.565Z,101846.03
2023-02-03T07:06:03.167Z,101853.06
2023-02-03T07:08:30.412Z,101861.81
2023-02-03T07:10:58.279Z,101861.81
2023-02-03T07:13:25.684Z,101867.94
2023-02-03T07:15:53.163Z,101864.50
2023-02-03T07:18:45.593Z,101869.75
2023-02-03T07:21:13.056Z,101877.72
2023-02-03T07:23:41.778Z,101865.50
2023-02-03T07:26:10.838Z,101872.63
2023-02-03T07:28:38.227Z,101874.41
2023-02-03T07:31:05.802Z,101877.03
2023-02-03T07:33:34.570Z,101870.91
2023-02-03T07:36:02.177Z,101878.00
2023-02-03T07:38:30.079Z,101888.47
2023-02-03T07:40:57.659Z,101884.09
2023-02-03T07:43:25.506Z,101873.53
2023-02-03T07:45:52.787Z,101889.28
2023-02-03T07:48:20.797Z,101859.53
2023-02-03T07:50:49.059Z,101871.78
2023-02-03T07:53:17.180Z,101881.38
2023-02-03T07:55:44.529Z,101856.88
2023-02-03T07:58:11.836Z,101865.63
2023-02-03T08:00:39.129Z,101884.00
2023-02-03T08:03:06.455Z,101884.81
2023-02-03T08:05:33.847Z,101877.75
2023-02-03T08:08:01.217Z,101899.66
2023-02-03T08:10:28.772Z,101903.16
2023-02-03T08:12:58.983Z,101907.59
2023-02-03T08:15:26.263Z,101913.78
2023-02-03T08:17:53.600Z,101926.09
2023-02-03T08:20:21.280Z,101918.28
2023-02-03T08:22:48.633Z,101928.78
2023-02-03T08:25:17.344Z,101926.16
2023-02-03T08:27:44.609Z,101926.22
2023-02-03T08:30:13.856Z,101942.88
2023-02-03T08:32:41.390Z,101932.38
2023-02-03T08:35:09.131Z,101937.66
2023-02-03T08:37:36.550Z,101934.16
2023-02-03T08:40:04.867Z,101936.72
2023-02-03T08:42:32.534Z,101941.13
2023-02-03T08:44:59.816Z,101957.78
2023-02-03T08:47:27.179Z,101952.53
2023-02-03T08:49:54.561Z,101960.41
2023-02-03T08:52:23.765Z,101971.78
2023-02-03T08:54:51.162Z,101963.97
2023-02-03T08:57:18.501Z,101966.63
2023-02-03T08:59:45.873Z,101975.44
2023-02-03T09:02:19.038Z,101978.97
2023-02-03T09:04:55.783Z,101990.50
2023-02-03T09:07:23.678Z,101974.84
2023-02-03T09:09:51.065Z,101975.78
2023-02-03T09:12:18.338Z,101981.97
2023-02-03T09:14:45.739Z,102006.56
2023-02-03T09:17:13.007Z,101984.72
2023-02-03T09:19:41.934Z,101998.72
2023-02-03T09:22:09.200Z,102001.41
2023-02-03T09:24:37.901Z,102003.16
2023-02-03T09:27:05.257Z,101998.81
2023-02-03T09:29:32.967Z,102021.66
2023-02-03T09:32:01.488Z,102030.47
2023-02-03T09:34:28.952Z,102032.25
2023-02-03T09:36:56.224Z,102039.28
2023-02-03T09:39:24.170Z,102043.69
2023-02-03T09:42:03.353Z,102047.28
2023-02-03T09:44:48.225Z,102054.19
2023-02-03T09:47:29.432Z,102063.88
2023-02-03T09:50:03.592Z,102055.09
2023-02-03T09:52:37.410Z,102053.38
2023-02-03T09:55:28.475Z,102059.50
2023-02-03T09:58:03.503Z,102059.50
2023-02-03T10:00:41.285Z,102062.22
2023-02-03T10:03:15.233Z,102057.09
2023-02-03T10:06:23.652Z,102067.53
2023-02-03T10:09:25.292Z,102064.06
2023-02-03T10:11:58.459Z,102078.03
2023-02-03T10:14:44.453Z,102080.56
2023-02-03T10:17:30.762Z,102087.63
2023-02-03T10:20:36.076Z,102092.06
2023-02-03T10:23:11.597Z,102113.19
2023-02-03T10:25:44.731Z,102106.28
2023-02-03T10:28:18.760Z,102120.34
2023-02-03T10:30:56.630Z,102121.34
2023-02-03T10:33:29.885Z,102128.53
2023-02-03T10:36:23.482Z,102135.59
2023-02-03T10:39:08.283Z,102130.47
2023-02-03T10:41:35.721Z,102121.72
2023-02-03T10:44:07.363Z,102138.47
2023-02-03T10:46:41.464Z,102139.47
2023-02-03T10:49:13.016Z,102136.09
2023-02-03T10:51:53.181Z,102125.69
2023-02-03T10:54:29.676Z,102131.78
2023-02-03T10:57:03.717Z,102144.09
2023-02-03T10:59:35.898Z,102154.50
2023-02-03T11:02:32.548Z,102146.53
2023-02-03T11:05:21.812Z,102151.78
2023-02-03T11:07:49.326Z,102162.28
2023-02-03T11:10:34.339Z,102157.91
2023-02-03T11:13:25.076Z,102175.56
2023-02-03T11:16:17.896Z,102190.34
2023-02-03T11:19:11.431Z,102184.19
2023-02-03T11:21:38.849Z,102183.31
2023-02-03T11:24:06.473Z,102162.25
2023-02-03T11:26:40.300Z,102188.47
2023-02-03T11:29:17.699Z,102173.50
2023-02-03T11:31:49.245Z,102178.84
2023-02-03T11:34:28.900Z,102186.72
2023-02-03T11:36:56.893Z,102194.78
2023-02-03T11:39:35.501Z,102183.41
2023-02-03T11:42:03.673Z,102189.59
2023-02-03T11:44:33.770Z,102187.91
2023-02-03T11:47:09.469Z,102200.09
2023-02-03T11:49:55.197Z,102204.38
2023-02-03T11:52:51.126Z,102205.22
2023-02-03T11:55:33.284Z,102207.03
2023-02-03T11:58:38.334Z,102194.84
2023-02-03T12:01:43.267Z,102197.63
2023-02-03T12:04:44.723Z,102208.16
2023-02-03T12:07:15.112Z,102194.78
2023-02-03T12:10:03.833Z,102189.22
2023-02-03T12:12:57.672Z,102213.44
2023-02-03T12:15:44.057Z,102207.88
2023-02-03T12:18:29.502Z,102221.72
2023-02-03T12:21:05.882Z,102216.25
2023-02-03T12:23:33.345Z,102221.50
2023-02-03T12:26:17.466Z,102218.94
2023-02-03T12:28:54.149Z,102226.81
2023-02-03T12:31:38.224Z,102230.44
2023-02-03T12:34:34.513Z,102233.00
2023-02-03T12:37:22.090Z,102215.56
2023-02-03T12:40:02.974Z,102229.47
2023-02-03T12:43:02.666Z,102243.53
2023-02-03T12:45:35.077Z,102232.84
2023-02-03T12:48:11.988Z,102225.91
2023-02-03T12:50:50.129Z,102220.75
2023-02-03T12:53:24.906Z,102242.06
2023-02-03T12:56:01.031Z,102239.63
2023-02-03T12:58:40.145Z,102251.22
2023-02-03T13:01:24.121Z,102261.03
2023-02-03T13:03:56.812Z,102252.34
2023-02-03T13:06:32.971Z,102261.91
2023-02-03T13:09:18.342Z,102255.72
2023-02-03T13:12:04.342Z,102260.72
2023-02-03T13:14:49.229Z,102279.78
2023-02-03T13:17:29.764Z,102284.91
2023-02-03T13:20:04.842Z,102289.94
2023-02-03T13:22:32.489Z,102288.06
2023-02-03T13:25:47.071Z,102272.91
2023-02-03T13:28:26.414Z,102285.94
2023-02-03T13:31:18.518Z,102282.31
2023-02-03T13:34:01.969Z,102272.56
2023-02-03T13:37:00.918Z,102290.94
2023-02-03T13:39:45.991Z,102297.94
2023-02-03T13:42:19.438Z,102306.63
2023-02-03T13:44:51.577Z,102282.09
2023-02-03T13:47:27.348Z,102295.19
2023-02-03T13:50:17.730Z,102289.84
2023-02-03T13:52:57.173Z,102297.56
2023-02-03T13:55:29.761Z,102294.94
2023-02-03T13:57:58.229Z,102295.84
2023-02-03T14:00:50.209Z,102305.44
2023-02-03T14:03:27.104Z,102303.66
2023-02-03T14:06:03.638Z,102311.31
2023-02-03T14:08:30.883Z,102318.03
2023-02-03T14:11:35.442Z,102316.16
2023-02-03T14:14:06.840Z,102321.41
2023-02-03T14:16:46.170Z,102315.25
2023-02-03T14:19:13.630Z,102317.09
2023-02-03T14:22:08.769Z,102304.09
2023-02-03T14:24:42.040Z,102308.41
2023-02-03T14:27:25.515Z,102331.00
2023-02-03T14:30:14.774Z,102333.44
2023-02-03T14:32:49.009Z,102319.31
2023-02-03T14:35:22.189Z,102331.38
2023-02-03T14:37:58.737Z,102341.75
2023-02-03T14:40:58.545Z,102343.41
2023-02-03T14:43:31.943Z,102342.47
2023-02-03T14:46:02.395Z,102346.63
2023-02-03T14:48:48.449Z,102336.94
2023-02-03T14:51:15.706Z,102342.09
2023-02-03T14:54:16.736Z,102356.03
2023-02-03T14:57:11.783Z,102354.13
2023-02-03T14:59:39.040Z,102373.22
2023-02-03T15:02:14.844Z,102359.16
2023-02-03T15:04:43.531Z,102372.09
2023-02-03T15:07:37.299Z,102374.50
2023-02-03T15:10:13.740Z,102361.16
2023-02-03T15:12:48.034Z,102361.00
2023-02-03T15:15:23.760Z,102352.13
2023-02-03T15:17:53.037Z,102366.84
2023-02-03T15:20:35.492Z,102373.63
2023-02-03T15:23:03.405Z,102371.72
2023-02-03T15:25:33.556Z,102367.16
2023-02-03T15:28:19.443Z,102365.31
2023-02-03T15:30:51.820Z,102378.28
2023-02-03T15:33:22.433Z,102379.06
2023-02-03T15:35:55.823Z,102387.69
2023-02-03T15:38:41.218Z,102402.47
2023-02-03T15:41:17.294Z,102404.06
2023-02-03T15:43:47.014Z,102408.38
2023-02-03T15:46:26.144Z,102398.66
2023-02-03T15:49:02.404Z,102402.06
2023-02-03T15:51:39.758Z,102407.97
2023-02-03T15:54:41.093Z,102421.84
2023-02-03T15:57:14.942Z,102430.56
2023-02-03T15:59:48.604Z,102415.56
2023-02-03T16:02:18.270Z,102443.50
2023-02-03T16:04:46.261Z,102436.47
2023-02-03T16:07:21.114Z,102438.97
2023-02-03T16:10:07.901Z,102441.44
2023-02-03T16:12:35.825Z,102442.19
2023-02-03T16:15:05.039Z,102445.56
2023-02-03T16:17:38.786Z,102458.53
2023-02-03T16:20:11.842Z,102461.00
2023-02-03T16:22:45.687Z,102466.16
2023-02-03T16:25:20.479Z,102477.50
2023-02-03T16:28:25.857Z,102467.75
2023-02-03T16:31:22.078Z,102488.66
2023-02-03T16:34:09.681Z,102485.00
2023-02-03T16:37:01.460Z,102501.53
2023-02-03T16:39:47.483Z,102501.41
2023-02-03T16:42:40.759Z,102510.94
2023-02-03T16:45:33.498Z,102510.88
2023-02-03T16:48:21.235Z,102516.09
2023-02-03T16:50:57.562Z,102521.44
2023-02-03T16:53:30.456Z,102519.72
2023-02-03T16:56:00.725Z,102522.38
2023-02-03T16:58:29.426Z,102523.22
2023-02-03T17:00:59.495Z,102527.59
2023-02-03T17:03:28.483Z,102533.72
2023-02-03T17:05:57.535Z,102531.16
2023-02-03T17:08:26.378Z,102536.41
2023-02-03T17:10:53.979Z,102545.22
2023-02-03T17:13:23.101Z,102532.22
2023-02-03T17:15:55.414Z,102541.94
2023-02-03T17:18:22.855Z,102543.56
2023-02-03T17:20:51.281Z,102554.13
2023-02-03T17:23:18.619Z,102555.03
2023-02-03T17:25:49.322Z,102569.00
2023-02-03T17:28:16.985Z,102568.03
2023-02-03T17:30:44.472Z,102568.03
2023-02-03T17:33:12.156Z,102569.84
2023-02-03T17:35:44.738Z,102565.56
2023-02-03T17:38:14.423Z,102575.13
2023-02-03T17:54:38.298Z,102589.50
2023-02-03T17:57:05.730Z,102588.63
2023-02-03T17:59:35.507Z,102587.66
2023-02-03T18:02:02.937Z,102603.28
2023-02-03T18:04:30.398Z,102607.56
2023-02-03T18:06:58.361Z,102618.88
2023-02-03T18:09:25.641Z,102610.94
2023-02-03T18:11:52.951Z,102631.88
2023-02-03T18:14:21.411Z,102622.28
2023-02-03T18:16:49.126Z,102633.66
2023-02-03T18:19:17.008Z,102632.69
2023-02-03T18:21:44.966Z,102634.56
2023-02-03T18:24:13.977Z,102628.41
2023-02-03T18:26:52.208Z,102626.63
2023-02-03T18:29:20.319Z,102636.19
2023-02-03T18:31:48.432Z,102641.44
2023-02-03T18:34:17.019Z,102651.78
2023-02-03T18:36:45.079Z,102658.66
2023-02-03T18:39:15.212Z,102641.13
2023-02-03T18:41:42.703Z,102654.09
2023-02-03T18:44:10.093Z,102654.00
2023-02-03T18:46:37.444Z,102660.94
2023-02-03T18:49:08.024Z,102654.72
2023-02-03T18:51:35.703Z,102666.03
2023-02-03T18:54:04.075Z,102681.66
2023-02-03T18:56:37.178Z,102675.53
2023-02-03T18:59:09.990Z,102683.31
2023-02-03T19:01:39.081Z,102682.41
2023-02-03T19:04:06.940Z,102691.91
2023-02-03T19:06:35.914Z,102697.97
2023-02-03T19:09:05.588Z,102710.25
2023-02-03T19:11:33.817Z,102697.97
2023-02-03T19:14:01.228Z,102714.63
2023-02-03T19:16:28.829Z,102716.44
2023-02-03T19:18:56.370Z,102717.34
2023-02-03T19:21:23.645Z,102725.34
2023-02-03T19:23:51.013Z,102728.88
2023-02-03T19:26:18.592Z,102732.47
2023-02-03T19:28:46.158Z,102738.66
2023-02-03T19:31:15.719Z,102738.84
2023-02-03T19:33:43.275Z,102739.72
2023-02-03T19:36:11.486Z,102744.06
2023-02-03T19:38:39.292Z,102751.09
2023-02-03T19:41:08.112Z,102757.22
2023-02-03T19:43:36.182Z,102756.34
2023-02-03T19:46:03.581Z,102754.59
2023-02-03T19:48:30.833Z,102756.34
2023-02-03T19:50:58.184Z,102769.34
2023-02-03T19:53:25.634Z,102773.69
2023-02-03T19:55:53.346Z,102779.75
2023-02-03T19:58:21.300Z,102780.56
2023-02-03T20:00:48.621Z,102774.44
2023-02-03T20:03:18.144Z,102782.94
2023-02-03T20:05:47.247Z,102790.63
2023-02-03T20:08:17.053Z,102804.38
2023-02-03T20:10:45.583Z,102817.28
2023-02-03T20:13:13.731Z,102811.88
2023-02-03T20:15:41.832Z,102816.22
2023-02-03T20:18:09.224Z,102817.88
2023-02-03T20:20:36.712Z,102815.09
2023-02-03T20:23:04.074Z,102816.81
2023-02-03T20:25:33.470Z,102824.66
2023-02-03T20:28:02.752Z,102826.38
2023-02-03T20:30:30.415Z,102837.56
2023-02-03T20:32:58.666Z,102841.88
2023-02-03T20:35:27.375Z,102833.97
2023-02-03T20:37:54.703Z,102836.50
2023-02-03T20:40:24.064Z,102835.56
2023-02-03T20:42:53.046Z,102843.28
2023-02-03T20:45:23.256Z,102845.78
2023-02-03T20:47:51.573Z,102853.47
2023-02-03T20:50:25.155Z,102855.19
2023-02-03T20:52:57.179Z,102847.25
2023-02-03T20:55:24.556Z,102855.00
2023-02-03T20:57:55.049Z,102852.41
2023-02-03T21:00:26.243Z,102865.41
2023-02-03T21:03:12.930Z,102856.66
2023-02-03T21:05:42.868Z,102869.72
2023-02-03T21:08:19.690Z,102876.78
2023-02-03T21:10:48.511Z,102870.56
2023-02-03T21:13:24.130Z,102880.13
2023-02-03T21:15:54.922Z,102885.38
2023-02-03T21:18:28.066Z,102877.44
2023-02-03T21:20:55.509Z,102870.38
2023-02-03T21:23:26.761Z,102891.41
2023-02-03T21:25:54.604Z,102886.16
2023-02-03T21:28:28.023Z,102890.66
2023-02-03T21:30:55.710Z,102885.44
2023-02-03T21:33:32.771Z,102892.47
2023-02-03T21:36:00.133Z,102896.81
2023-02-03T21:38:28.323Z,102894.25
2023-02-03T21:40:55.660Z,102895.19
2023-02-03T21:43:24.679Z,102898.69
2023-02-03T21:45:52.086Z,102898.69
2023-02-03T21:48:23.729Z,102909.25
2023-02-03T21:50:55.269Z,102905.72
2023-02-03T21:53:35.939Z,102914.56
2023-02-03T21:56:28.029Z,102910.31
2023-02-03T21:59:00.280Z,102913.03
2023-02-03T22:01:36.316Z,102905.22
2023-02-03T22:04:06.582Z,102907.94
2023-02-03T22:06:53.350Z,102915.88
2023-02-03T22:09:26.412Z,102917.75
2023-02-03T22:11:53.718Z,102930.03
2023-02-03T22:14:21.139Z,102930.94
2023-02-03T22:16:48.811Z,102937.19
2023-02-03T22:19:18.961Z,102940.72
2023-02-03T22:21:47.778Z,102944.25
2023-02-03T22:24:14.957Z,102935.56
2023-02-03T22:26:42.146Z,102940.78
2023-02-03T22:29:09.414Z,102948.72
2023-02-03T22:31:36.809Z,102943.50
2023-02-03T22:34:04.085Z,102952.25
2023-02-03T22:36:33.395Z,102960.09
2023-02-03T22:39:00.713Z,102954.94
2023-02-03T22:41:27.922Z,102968.22
2023-02-03T22:44:00.283Z,102968.22
2023-02-03T22:46:27.629Z,102970.09
2023-02-03T22:48:54.976Z,102977.16
2023-02-03T22:51:22.249Z,102978.13
2023-02-03T22:53:49.422Z,102973.78
2023-02-03T22:56:16.663Z,102982.72
2023-02-03T22:58:44.001Z,102979.19
2023-02-03T23:01:11.247Z,102986.22
2023-02-03T23:03:38.618Z,102981.97
2023-02-03T23:06:06.188Z,102986.41
2023-02-03T23:08:33.777Z,102986.31
2023-02-03T23:11:01.135Z,102985.50
2023-02-03T23:13:28.852Z,102995.97
2023-02-03T23:15:56.420Z,102992.44
2023-02-03T23:18:23.847Z,102999.41
2023-02-03T23:20:51.337Z,102994.16
2023-02-03T23:23:18.573Z,102992.19
2023-02-03T23:25:46.097Z,102995.47
2023-02-03T23:28:13.563Z,102999.63
2023-02-03T23:30:42.486Z,103000.34
2023-02-03T23:33:09.935Z,103003.59
2023-02-03T23:35:46.226Z,103008.69
2023-02-03T23:38:15.144Z,103007.56
2023-02-03T23:40:43.377Z,103013.50
2023-02-03T23:43:10.645Z,103024.53
2023-02-03T23:45:37.967Z,103025.16
2023-02-03T23:48:05.848Z,103029.31
2023-02-03T23:50:33.788Z,103032.66
2023-02-03T23:53:03.881Z,103036.81
2023-02-03T23:55:33.802Z,103034.84
2023-02-03T23:58:01.098Z,103051.19
